sensor_id;sensor_type;location;lat;lon;timestamp;pressure;altitude;pressure_sealevel;temperature;humidity
7335;BME280;3708;42.632;23.378;2023-11-18T00:01:31;93566.38;;;6.51;73.72
7335;BME280;3708;42.632;23.378;2023-11-18T00:03:58;93560.41;;;6.50;73.29
7335;BME280;3708;42.632;23.378;2023-11-18T00:06:25;93568.56;;;6.86;71.17
7335;BME280;3708;42.632;23.378;2023-11-18T00:08:52;93572.81;;;6.45;72.92
7335;BME280;3708;42.632;23.378;2023-11-18T00:11:20;93577.28;;;6.90;72.81
7335;BME280;3708;42.632;23.378;2023-11-18T00:13:47;93582.09;;;6.71;70.37
7335;BME280;3708;42.632;23.378;2023-11-18T00:16:14;93582.88;;;6.63;71.43
7335;BME280;3708;42.632;23.378;2023-11-18T00:18:42;93602.72;;;6.85;71.46
7335;BME280;3708;42.632;23.378;2023-11-18T00:21:09;93626.81;;;6.22;71.87
7335;BME280;3708;42.632;23.378;2023-11-18T00:23:37;93610.91;;;6.41;72.24
7335;BME280;3708;42.632;23.378;2023-11-18T00:26:04;93621.44;;;6.61;71.03
7335;BME280;3708;42.632;23.378;2023-11-18T00:28:34;93588.81;;;6.81;71.26
7335;BME280;3708;42.632;23.378;2023-11-18T00:31:00;93566.63;;;6.58;70.49
7335;BME280;3708;42.632;23.378;2023-11-18T00:33:29;93582.84;;;6.80;71.53
7335;BME280;3708;42.632;23.378;2023-11-18T00:35:57;93576.72;;;6.76;68.74
7335;BME280;3708;42.632;23.378;2023-11-18T00:38:25;93588.53;;;6.65;70.38
7335;BME280;3708;42.632;23.378;2023-11-18T00:40:52;93574.78;;;6.39;70.12
7335;BME280;3708;42.632;23.378;2023-11-18T00:43:19;93562.22;;;6.50;69.63
7335;BME280;3708;42.632;23.378;2023-11-18T00:45:49;93577.38;;;6.48;70.59
7335;BME280;3708;42.632;23.378;2023-11-18T00:48:16;93589.47;;;6.52;70.24
7335;BME280;3708;42.632;23.378;2023-11-18T00:50:43;93573.13;;;6.35;70.33
7335;BME280;3708;42.632;23.378;2023-11-18T00:53:11;93595.75;;;6.17;70.91
7335;BME280;3708;42.632;23.378;2023-11-18T00:58:23;93575.13;;;5.95;72.38
7335;BME280;3708;42.632;23.378;2023-11-18T01:00:51;93572.53;;;5.95;72.67
7335;BME280;3708;42.632;23.378;2023-11-18T01:03:19;93593.47;;;5.90;72.92
7335;BME280;3708;42.632;23.378;2023-11-18T01:05:46;93598.06;;;6.27;72.22
7335;BME280;3708;42.632;23.378;2023-11-18T01:08:13;93588.13;;;5.95;71.56
7335;BME280;3708;42.632;23.378;2023-11-18T01:10:39;93589.31;;;5.89;72.26
7335;BME280;3708;42.632;23.378;2023-11-18T01:13:07;93604.28;;;5.83;71.26
7335;BME280;3708;42.632;23.378;2023-11-18T01:15:34;93606.38;;;5.64;72.91
7335;BME280;3708;42.632;23.378;2023-11-18T01:18:03;93618.56;;;6.03;71.44
7335;BME280;3708;42.632;23.378;2023-11-18T01:20:31;93607.78;;;5.79;71.71
7335;BME280;3708;42.632;23.378;2023-11-18T01:22:58;93609.47;;;5.83;72.67
7335;BME280;3708;42.632;23.378;2023-11-18T01:25:25;93582.47;;;5.93;71.96
7335;BME280;3708;42.632;23.378;2023-11-18T01:27:52;93622.66;;;5.95;71.59
7335;BME280;3708;42.632;23.378;2023-11-18T01:30:19;93600.94;;;6.17;71.22
7335;BME280;3708;42.632;23.378;2023-11-18T01:32:46;93589.63;;;6.13;71.27
7335;BME280;3708;42.632;23.378;2023-11-18T01:35:16;93595.28;;;6.32;70.26
7335;BME280;3708;42.632;23.378;2023-11-18T01:37:42;93617.31;;;6.09;70.66
7335;BME280;3708;42.632;23.378;2023-11-18T01:40:10;93603.31;;;5.62;73.33
7335;BME280;3708;42.632;23.378;2023-11-18T01:42:38;93599.50;;;5.68;72.85
7335;BME280;3708;42.632;23.378;2023-11-18T01:45:08;93591.25;;;5.66;72.43
7335;BME280;3708;42.632;23.378;2023-11-18T01:47:37;93599.13;;;6.18;71.07
7335;BME280;3708;42.632;23.378;2023-11-18T01:50:07;93605.47;;;5.69;72.50
7335;BME280;3708;42.632;23.378;2023-11-18T01:52:36;93593.47;;;5.90;71.69
7335;BME280;3708;42.632;23.378;2023-11-18T01:55:05;93616.28;;;5.54;72.17
7335;BME280;3708;42.632;23.378;2023-11-18T01:57:32;93591.09;;;5.54;72.51
7335;BME280;3708;42.632;23.378;2023-11-18T02:00:00;93583.88;;;5.43;71.96
7335;BME280;3708;42.632;23.378;2023-11-18T02:02:31;93575.03;;;5.61;72.62
7335;BME280;3708;42.632;23.378;2023-11-18T02:05:00;93585.34;;;5.26;72.71
7335;BME280;3708;42.632;23.378;2023-11-18T02:07:27;93591.66;;;5.43;72.49
7335;BME280;3708;42.632;23.378;2023-11-18T02:09:56;93607.22;;;5.34;71.20
7335;BME280;3708;42.632;23.378;2023-11-18T02:12:29;93621.19;;;5.16;71.36
7335;BME280;3708;42.632;23.378;2023-11-18T02:15:01;93602.00;;;5.25;71.82
7335;BME280;3708;42.632;23.378;2023-11-18T02:17:37;93588.53;;;5.15;70.92
7335;BME280;3708;42.632;23.378;2023-11-18T02:20:07;93616.69;;;5.30;71.02
7335;BME280;3708;42.632;23.378;2023-11-18T02:22:41;93604.22;;;5.49;69.73
7335;BME280;3708;42.632;23.378;2023-11-18T02:25:15;93597.34;;;5.05;71.17
7335;BME280;3708;42.632;23.378;2023-11-18T02:27:44;93629.47;;;4.87;71.26
7335;BME280;3708;42.632;23.378;2023-11-18T02:30:12;93586.81;;;5.10;70.17
7335;BME280;3708;42.632;23.378;2023-11-18T02:32:45;93642.53;;;5.43;68.66
7335;BME280;3708;42.632;23.378;2023-11-18T02:35:23;93609.16;;;5.28;68.53
7335;BME280;3708;42.632;23.378;2023-11-18T02:37:53;93606.19;;;5.04;69.22
7335;BME280;3708;42.632;23.378;2023-11-18T02:40:25;93602.19;;;5.37;68.05
7335;BME280;3708;42.632;23.378;2023-11-18T02:42:58;93585.00;;;5.11;68.30
7335;BME280;3708;42.632;23.378;2023-11-18T02:45:27;93608.78;;;5.04;67.92
7335;BME280;3708;42.632;23.378;2023-11-18T02:47:54;93614.19;;;5.16;68.02
7335;BME280;3708;42.632;23.378;2023-11-18T02:50:23;93614.25;;;5.42;66.20
7335;BME280;3708;42.632;23.378;2023-11-18T02:52:50;93609.56;;;5.53;66.66
7335;BME280;3708;42.632;23.378;2023-11-18T02:55:17;93599.44;;;5.43;66.70
7335;BME280;3708;42.632;23.378;2023-11-18T02:57:46;93618.91;;;5.14;67.12
7335;BME280;3708;42.632;23.378;2023-11-18T03:00:15;93624.28;;;4.87;66.76
7335;BME280;3708;42.632;23.378;2023-11-18T03:02:47;93621.34;;;5.11;67.01
7335;BME280;3708;42.632;23.378;2023-11-18T03:05:16;93625.22;;;5.30;66.34
7335;BME280;3708;42.632;23.378;2023-11-18T03:07:43;93626.81;;;5.09;66.84
7335;BME280;3708;42.632;23.378;2023-11-18T03:10:12;93635.13;;;5.28;65.39
7335;BME280;3708;42.632;23.378;2023-11-18T03:12:46;93639.84;;;4.87;67.10
7335;BME280;3708;42.632;23.378;2023-11-18T03:15:15;93622.78;;;4.95;67.01
7335;BME280;3708;42.632;23.378;2023-11-18T03:17:44;93629.19;;;4.67;67.99
7335;BME280;3708;42.632;23.378;2023-11-18T03:20:11;93697.97;;;4.64;66.54
7335;BME280;3708;42.632;23.378;2023-11-18T03:22:42;93647.53;;;4.48;67.43
7335;BME280;3708;42.632;23.378;2023-11-18T03:25:10;93642.34;;;4.70;66.44
7335;BME280;3708;42.632;23.378;2023-11-18T03:27:37;93667.19;;;4.49;67.04
7335;BME280;3708;42.632;23.378;2023-11-18T03:30:07;93663.31;;;4.60;67.29
7335;BME280;3708;42.632;23.378;2023-11-18T03:32:36;93670.59;;;4.36;66.94
7335;BME280;3708;42.632;23.378;2023-11-18T03:35:04;93635.63;;;4.25;67.25
7335;BME280;3708;42.632;23.378;2023-11-18T03:37:34;93659.78;;;4.56;66.41
7335;BME280;3708;42.632;23.378;2023-11-18T03:40:00;93653.56;;;4.21;66.98
7335;BME280;3708;42.632;23.378;2023-11-18T03:42:27;93653.91;;;4.42;66.57
7335;BME280;3708;42.632;23.378;2023-11-18T03:44:54;93660.09;;;4.19;66.33
7335;BME280;3708;42.632;23.378;2023-11-18T03:47:21;93693.16;;;4.13;66.45
7335;BME280;3708;42.632;23.378;2023-11-18T03:49:50;93661.50;;;4.03;66.71
7335;BME280;3708;42.632;23.378;2023-11-18T03:52:20;93671.63;;;4.13;66.14
7335;BME280;3708;42.632;23.378;2023-11-18T03:54:47;93693.31;;;4.17;66.25
7335;BME280;3708;42.632;23.378;2023-11-18T03:57:14;93678.38;;;4.00;67.05
7335;BME280;3708;42.632;23.378;2023-11-18T03:59:40;93698.47;;;4.30;65.82
7335;BME280;3708;42.632;23.378;2023-11-18T04:02:07;93659.22;;;3.88;66.71
7335;BME280;3708;42.632;23.378;2023-11-18T04:04:36;93701.41;;;4.02;66.45
7335;BME280;3708;42.632;23.378;2023-11-18T04:07:05;93699.59;;;4.02;66.30
7335;BME280;3708;42.632;23.378;2023-11-18T04:09:32;93645.88;;;3.94;67.27
7335;BME280;3708;42.632;23.378;2023-11-18T04:11:59;93656.38;;;4.11;66.00
7335;BME280;3708;42.632;23.378;2023-11-18T04:14:26;93703.66;;;3.81;66.71
7335;BME280;3708;42.632;23.378;2023-11-18T04:16:54;93684.34;;;4.01;65.20
7335;BME280;3708;42.632;23.378;2023-11-18T04:19:21;93685.69;;;3.71;65.92
7335;BME280;3708;42.632;23.378;2023-11-18T04:21:48;93710.94;;;3.52;66.24
7335;BME280;3708;42.632;23.378;2023-11-18T04:24:16;93683.41;;;3.69;66.03
7335;BME280;3708;42.632;23.378;2023-11-18T04:26:43;93727.34;;;3.74;65.17
7335;BME280;3708;42.632;23.378;2023-11-18T04:29:10;93688.84;;;3.95;64.90
7335;BME280;3708;42.632;23.378;2023-11-18T04:31:36;93695.88;;;3.81;65.65
7335;BME280;3708;42.632;23.378;2023-11-18T04:34:03;93702.91;;;3.53;66.31
7335;BME280;3708;42.632;23.378;2023-11-18T04:36:31;93699.50;;;3.80;64.74
7335;BME280;3708;42.632;23.378;2023-11-18T04:38:58;93710.81;;;3.98;64.49
7335;BME280;3708;42.632;23.378;2023-11-18T04:41:26;93728.38;;;3.73;65.14
7335;BME280;3708;42.632;23.378;2023-11-18T04:43:53;93744.59;;;3.52;65.44
7335;BME280;3708;42.632;23.378;2023-11-18T04:46:21;93709.22;;;3.74;64.96
7335;BME280;3708;42.632;23.378;2023-11-18T04:48:47;93720.63;;;3.73;65.22
7335;BME280;3708;42.632;23.378;2023-11-18T04:51:14;93699.91;;;3.46;65.40
7335;BME280;3708;42.632;23.378;2023-11-18T04:53:42;93729.25;;;3.42;65.99
7335;BME280;3708;42.632;23.378;2023-11-18T04:56:09;93708.91;;;3.62;65.19
7335;BME280;3708;42.632;23.378;2023-11-18T04:58:39;93750.25;;;3.54;64.87
7335;BME280;3708;42.632;23.378;2023-11-18T05:01:06;93752.09;;;3.67;64.66
7335;BME280;3708;42.632;23.378;2023-11-18T05:03:34;93712.19;;;3.68;64.62
7335;BME280;3708;42.632;23.378;2023-11-18T05:06:02;93706.13;;;3.45;65.14
7335;BME280;3708;42.632;23.378;2023-11-18T05:08:30;93694.44;;;3.34;65.56
7335;BME280;3708;42.632;23.378;2023-11-18T05:10:59;93694.25;;;3.71;64.62
7335;BME280;3708;42.632;23.378;2023-11-18T05:13:25;93713.81;;;3.77;63.85
7335;BME280;3708;42.632;23.378;2023-11-18T05:15:54;93712.38;;;3.71;63.47
7335;BME280;3708;42.632;23.378;2023-11-18T05:18:21;93699.72;;;3.56;64.11
7335;BME280;3708;42.632;23.378;2023-11-18T05:20:47;93688.31;;;3.57;64.01
7335;BME280;3708;42.632;23.378;2023-11-18T05:23:14;93700.28;;;3.67;63.74
7335;BME280;3708;42.632;23.378;2023-11-18T05:25:42;93702.31;;;3.83;63.06
7335;BME280;3708;42.632;23.378;2023-11-18T05:28:09;93708.16;;;3.48;64.02
7335;BME280;3708;42.632;23.378;2023-11-18T05:30:37;93752.66;;;3.64;63.27
7335;BME280;3708;42.632;23.378;2023-11-18T05:33:05;93687.25;;;3.85;62.83
7335;BME280;3708;42.632;23.378;2023-11-18T05:35:33;93707.31;;;3.66;62.65
7335;BME280;3708;42.632;23.378;2023-11-18T05:38:00;93699.13;;;3.32;63.05
7335;BME280;3708;42.632;23.378;2023-11-18T05:40:28;93674.88;;;3.42;63.58
7335;BME280;3708;42.632;23.378;2023-11-18T05:42:55;93691.34;;;3.86;62.22
7335;BME280;3708;42.632;23.378;2023-11-18T05:45:24;93686.47;;;3.99;61.53
7335;BME280;3708;42.632;23.378;2023-11-18T05:47:57;93673.44;;;3.63;62.37
7335;BME280;3708;42.632;23.378;2023-11-18T05:50:25;93716.00;;;3.30;63.22
7335;BME280;3708;42.632;23.378;2023-11-18T05:52:53;93699.69;;;3.97;61.57
7335;BME280;3708;42.632;23.378;2023-11-18T05:55:20;93686.56;;;3.80;62.15
7335;BME280;3708;42.632;23.378;2023-11-18T05:57:47;93675.25;;;3.35;62.78
7335;BME280;3708;42.632;23.378;2023-11-18T06:00:15;93680.13;;;3.37;62.72
7335;BME280;3708;42.632;23.378;2023-11-18T06:02:44;93677.84;;;3.62;62.17
7335;BME280;3708;42.632;23.378;2023-11-18T06:05:12;93651.94;;;3.62;62.63
7335;BME280;3708;42.632;23.378;2023-11-18T06:07:41;93663.28;;;3.53;63.12
7335;BME280;3708;42.632;23.378;2023-11-18T06:10:09;93679.97;;;3.47;63.04
7335;BME280;3708;42.632;23.378;2023-11-18T06:12:37;93690.78;;;3.76;61.43
7335;BME280;3708;42.632;23.378;2023-11-18T06:15:06;93681.69;;;3.65;62.21
7335;BME280;3708;42.632;23.378;2023-11-18T06:17:36;93716.88;;;3.52;62.36
7335;BME280;3708;42.632;23.378;2023-11-18T06:20:04;93709.81;;;3.58;62.39
7335;BME280;3708;42.632;23.378;2023-11-18T06:22:31;93740.00;;;3.03;64.20
7335;BME280;3708;42.632;23.378;2023-11-18T06:24:59;93704.75;;;3.07;64.85
7335;BME280;3708;42.632;23.378;2023-11-18T06:27:27;93702.69;;;3.36;64.23
7335;BME280;3708;42.632;23.378;2023-11-18T06:29:55;93702.06;;;3.12;64.49
7335;BME280;3708;42.632;23.378;2023-11-18T06:32:22;93687.34;;;3.40;63.88
7335;BME280;3708;42.632;23.378;2023-11-18T06:34:51;93692.97;;;3.28;64.02
7335;BME280;3708;42.632;23.378;2023-11-18T06:37:18;93701.44;;;3.34;64.14
7335;BME280;3708;42.632;23.378;2023-11-18T06:39:46;93706.03;;;3.23;64.36
7335;BME280;3708;42.632;23.378;2023-11-18T06:42:15;93708.91;;;3.35;63.38
7335;BME280;3708;42.632;23.378;2023-11-18T06:44:43;93731.91;;;3.23;64.32
7335;BME280;3708;42.632;23.378;2023-11-18T06:47:10;93710.28;;;3.60;63.70
7335;BME280;3708;42.632;23.378;2023-11-18T06:49:38;93718.91;;;3.82;62.76
7335;BME280;3708;42.632;23.378;2023-11-18T06:52:06;93707.13;;;4.26;61.94
7335;BME280;3708;42.632;23.378;2023-11-18T06:54:35;93702.31;;;3.83;62.30
7335;BME280;3708;42.632;23.378;2023-11-18T06:57:03;93747.19;;;3.52;63.04
7335;BME280;3708;42.632;23.378;2023-11-18T06:59:31;93711.41;;;3.67;61.51
7335;BME280;3708;42.632;23.378;2023-11-18T07:01:58;93730.78;;;3.56;61.64
7335;BME280;3708;42.632;23.378;2023-11-18T07:04:25;93729.75;;;3.57;61.58
7335;BME280;3708;42.632;23.378;2023-11-18T07:06:52;93728.31;;;3.51;61.15
7335;BME280;3708;42.632;23.378;2023-11-18T07:09:19;93730.31;;;3.95;60.43
7335;BME280;3708;42.632;23.378;2023-11-18T07:11:47;93744.59;;;3.52;60.92
7335;BME280;3708;42.632;23.378;2023-11-18T07:14:16;93777.94;;;3.40;61.45
7335;BME280;3708;42.632;23.378;2023-11-18T07:16:45;93750.34;;;3.62;61.31
7335;BME280;3708;42.632;23.378;2023-11-18T07:19:12;93705.94;;;4.10;60.51
7335;BME280;3708;42.632;23.378;2023-11-18T07:21:45;93746.31;;;3.97;61.09
7335;BME280;3708;42.632;23.378;2023-11-18T07:24:12;93739.50;;;4.15;59.53
7335;BME280;3708;42.632;23.378;2023-11-18T07:26:39;93739.41;;;4.06;59.95
7335;BME280;3708;42.632;23.378;2023-11-18T07:29:06;93736.72;;;4.25;60.07
7335;BME280;3708;42.632;23.378;2023-11-18T07:31:36;93728.88;;;3.75;60.86
7335;BME280;3708;42.632;23.378;2023-11-18T07:34:05;93734.44;;;4.10;60.21
7335;BME280;3708;42.632;23.378;2023-11-18T07:36:33;93738.09;;;3.81;60.84
7335;BME280;3708;42.632;23.378;2023-11-18T07:39:00;93752.19;;;3.75;61.62
7335;BME280;3708;42.632;23.378;2023-11-18T07:41:28;93728.56;;;4.04;60.86
7335;BME280;3708;42.632;23.378;2023-11-18T07:44:00;93748.34;;;3.86;61.31
7335;BME280;3708;42.632;23.378;2023-11-18T07:46:32;93747.66;;;4.08;61.13
7335;BME280;3708;42.632;23.378;2023-11-18T07:48:59;93717.94;;;3.78;61.42
7335;BME280;3708;42.632;23.378;2023-11-18T07:51:28;93749.66;;;3.43;62.66
7335;BME280;3708;42.632;23.378;2023-11-18T07:53:56;93731.38;;;3.80;61.93
7335;BME280;3708;42.632;23.378;2023-11-18T07:56:27;93744.03;;;3.68;61.79
7335;BME280;3708;42.632;23.378;2023-11-18T07:58:54;93782.97;;;3.63;62.10
7335;BME280;3708;42.632;23.378;2023-11-18T08:01:21;93764.75;;;3.82;61.44
7335;BME280;3708;42.632;23.378;2023-11-18T08:03:49;93759.53;;;3.41;61.82
7335;BME280;3708;42.632;23.378;2023-11-18T08:06:18;93758.00;;;3.40;62.46
7335;BME280;3708;42.632;23.378;2023-11-18T08:08:47;93779.13;;;3.61;61.51
7335;BME280;3708;42.632;23.378;2023-11-18T08:11:14;93762.34;;;3.58;61.67
7335;BME280;3708;42.632;23.378;2023-11-18T08:13:42;93773.84;;;3.52;62.02
7335;BME280;3708;42.632;23.378;2023-11-18T08:16:09;93800.53;;;3.66;61.32
7335;BME280;3708;42.632;23.378;2023-11-18T08:18:38;93760.88;;;3.39;61.63
7335;BME280;3708;42.632;23.378;2023-11-18T08:21:05;93780.47;;;3.58;61.48
7335;BME280;3708;42.632;23.378;2023-11-18T08:23:33;93746.41;;;3.65;61.22
7335;BME280;3708;42.632;23.378;2023-11-18T08:26:04;93778.41;;;3.88;60.42
7335;BME280;3708;42.632;23.378;2023-11-18T08:28:32;93793.13;;;3.46;60.62
7335;BME280;3708;42.632;23.378;2023-11-18T08:31:00;93795.47;;;3.88;60.32
7335;BME280;3708;42.632;23.378;2023-11-18T08:33:27;93746.25;;;3.75;59.94
7335;BME280;3708;42.632;23.378;2023-11-18T08:35:54;93795.91;;;3.63;61.16
7335;BME280;3708;42.632;23.378;2023-11-18T08:38:22;93752.09;;;3.53;60.61
7335;BME280;3708;42.632;23.378;2023-11-18T08:40:49;93771.94;;;3.58;60.36
7335;BME280;3708;42.632;23.378;2023-11-18T08:43:18;93745.56;;;3.83;60.69
7335;BME280;3708;42.632;23.378;2023-11-18T08:45:46;93737.97;;;3.86;60.90
7335;BME280;3708;42.632;23.378;2023-11-18T08:48:15;93771.50;;;3.97;60.44
7335;BME280;3708;42.632;23.378;2023-11-18T08:50:43;93837.47;;;3.72;60.68
7335;BME280;3708;42.632;23.378;2023-11-18T08:53:10;93743.47;;;3.99;60.47
7335;BME280;3708;42.632;23.378;2023-11-18T08:55:38;93737.91;;;3.64;61.38
7335;BME280;3708;42.632;23.378;2023-11-18T08:58:05;93750.72;;;4.24;59.84
7335;BME280;3708;42.632;23.378;2023-11-18T09:00:42;93757.09;;;3.77;60.92
7335;BME280;3708;42.632;23.378;2023-11-18T09:03:14;93809.25;;;3.57;60.75
7335;BME280;3708;42.632;23.378;2023-11-18T09:05:50;93821.38;;;3.75;60.63
7335;BME280;3708;42.632;23.378;2023-11-18T09:08:26;93763.03;;;3.77;60.15
7335;BME280;3708;42.632;23.378;2023-11-18T09:10:55;93729.91;;;3.47;61.01
7335;BME280;3708;42.632;23.378;2023-11-18T09:13:22;93745.53;;;3.56;60.59
7335;BME280;3708;42.632;23.378;2023-11-18T09:15:52;93751.72;;;3.60;60.99
7335;BME280;3708;42.632;23.378;2023-11-18T09:18:19;93762.75;;;3.65;61.15
7335;BME280;3708;42.632;23.378;2023-11-18T09:20:47;93759.28;;;3.43;61.39
7335;BME280;3708;42.632;23.378;2023-11-18T09:23:14;93759.75;;;3.72;60.71
7335;BME280;3708;42.632;23.378;2023-11-18T09:25:42;93753.63;;;3.68;60.61
7335;BME280;3708;42.632;23.378;2023-11-18T09:28:12;93739.78;;;3.45;60.75
7335;BME280;3708;42.632;23.378;2023-11-18T09:30:41;93742.88;;;3.61;61.08
7335;BME280;3708;42.632;23.378;2023-11-18T09:33:18;93718.16;;;3.68;61.25
7335;BME280;3708;42.632;23.378;2023-11-18T09:35:55;93762.25;;;3.63;60.21
7335;BME280;3708;42.632;23.378;2023-11-18T09:38:27;93761.84;;;3.56;60.78
7335;BME280;3708;42.632;23.378;2023-11-18T09:40:55;93788.72;;;3.60;60.46
7335;BME280;3708;42.632;23.378;2023-11-18T09:43:24;93721.31;;;3.65;60.61
7335;BME280;3708;42.632;23.378;2023-11-18T09:45:54;93754.66;;;3.67;60.22
7335;BME280;3708;42.632;23.378;2023-11-18T09:48:23;93720.53;;;3.92;59.97
7335;BME280;3708;42.632;23.378;2023-11-18T09:50:52;93729.25;;;3.82;59.53
7335;BME280;3708;42.632;23.378;2023-11-18T09:53:20;93779.63;;;3.76;59.42
7335;BME280;3708;42.632;23.378;2023-11-18T09:55:56;93711.03;;;3.74;59.49
7335;BME280;3708;42.632;23.378;2023-11-18T09:58:35;93777.03;;;3.76;59.87
7335;BME280;3708;42.632;23.378;2023-11-18T10:01:09;93724.00;;;3.88;59.49
7335;BME280;3708;42.632;23.378;2023-11-18T10:03:45;93717.47;;;3.76;59.58
7335;BME280;3708;42.632;23.378;2023-11-18T10:06:13;93819.03;;;3.73;59.72
7335;BME280;3708;42.632;23.378;2023-11-18T10:08:41;93757.28;;;3.80;59.40
7335;BME280;3708;42.632;23.378;2023-11-18T10:11:12;93757.75;;;3.82;59.10
7335;BME280;3708;42.632;23.378;2023-11-18T10:13:39;93751.91;;;3.63;59.42
7335;BME280;3708;42.632;23.378;2023-11-18T10:16:09;93746.81;;;3.72;59.88
7335;BME280;3708;42.632;23.378;2023-11-18T10:18:38;93762.16;;;3.82;59.94
7335;BME280;3708;42.632;23.378;2023-11-18T10:21:16;93706.72;;;3.97;59.41
7335;BME280;3708;42.632;23.378;2023-11-18T10:23:58;93725.03;;;4.14;58.48
7335;BME280;3708;42.632;23.378;2023-11-18T10:26:27;93751.13;;;4.17;57.74
7335;BME280;3708;42.632;23.378;2023-11-18T10:29:02;93733.66;;;3.82;58.36
7335;BME280;3708;42.632;23.378;2023-11-18T10:31:33;93705.09;;;3.73;59.09
7335;BME280;3708;42.632;23.378;2023-11-18T10:34:00;93716.31;;;3.96;58.49
7335;BME280;3708;42.632;23.378;2023-11-18T10:36:30;93746.16;;;3.94;58.68
7335;BME280;3708;42.632;23.378;2023-11-18T10:39:01;93728.09;;;4.16;57.83
7335;BME280;3708;42.632;23.378;2023-11-18T10:41:40;93748.72;;;3.80;57.41
7335;BME280;3708;42.632;23.378;2023-11-18T10:44:09;93689.44;;;3.78;57.96
7335;BME280;3708;42.632;23.378;2023-11-18T10:46:40;93725.50;;;4.02;57.53
7335;BME280;3708;42.632;23.378;2023-11-18T10:49:07;93706.41;;;4.12;57.26
7335;BME280;3708;42.632;23.378;2023-11-18T10:51:37;93704.94;;;4.06;57.54
7335;BME280;3708;42.632;23.378;2023-11-18T10:54:06;93685.69;;;3.71;58.17
7335;BME280;3708;42.632;23.378;2023-11-18T10:56:46;93695.97;;;4.25;58.14
7335;BME280;3708;42.632;23.378;2023-11-18T10:59:13;93711.66;;;4.56;57.01
7335;BME280;3708;42.632;23.378;2023-11-18T11:01:42;93656.88;;;4.57;56.38
7335;BME280;3708;42.632;23.378;2023-11-18T11:04:10;93695.81;;;4.22;57.73
7335;BME280;3708;42.632;23.378;2023-11-18T11:06:42;93676.00;;;4.39;57.37
7335;BME280;3708;42.632;23.378;2023-11-18T11:09:11;93701.44;;;4.37;56.99
7335;BME280;3708;42.632;23.378;2023-11-18T11:11:47;93630.69;;;4.59;55.90
7335;BME280;3708;42.632;23.378;2023-11-18T11:14:15;93681.59;;;4.77;55.68
7335;BME280;3708;42.632;23.378;2023-11-18T11:16:46;93687.75;;;5.12;54.83
7335;BME280;3708;42.632;23.378;2023-11-18T11:19:22;93651.44;;;4.59;55.72
7335;BME280;3708;42.632;23.378;2023-11-18T11:21:59;93674.63;;;4.42;55.97
7335;BME280;3708;42.632;23.378;2023-11-18T11:24:34;93692.00;;;4.06;56.71
7335;BME280;3708;42.632;23.378;2023-11-18T11:27:10;93688.69;;;4.27;56.58
7335;BME280;3708;42.632;23.378;2023-11-18T11:29:49;93695.63;;;4.54;56.23
7335;BME280;3708;42.632;23.378;2023-11-18T11:32:25;93743.81;;;4.06;57.35
7335;BME280;3708;42.632;23.378;2023-11-18T11:34:56;93730.78;;;3.97;57.15
7335;BME280;3708;42.632;23.378;2023-11-18T11:37:25;93705.56;;;4.38;56.81
7335;BME280;3708;42.632;23.378;2023-11-18T11:39:55;93706.41;;;4.12;57.43
7335;BME280;3708;42.632;23.378;2023-11-18T11:42:23;93819.38;;;3.85;57.72
7335;BME280;3708;42.632;23.378;2023-11-18T11:44:50;93723.50;;;3.72;58.40
7335;BME280;3708;42.632;23.378;2023-11-18T11:47:21;93712.38;;;3.85;57.93
7335;BME280;3708;42.632;23.378;2023-11-18T11:49:54;93709.59;;;3.81;58.46
7335;BME280;3708;42.632;23.378;2023-11-18T11:52:29;93708.44;;;3.88;58.03
7335;BME280;3708;42.632;23.378;2023-11-18T11:55:03;93693.84;;;4.05;57.78
7335;BME280;3708;42.632;23.378;2023-11-18T11:57:32;93720.78;;;4.04;57.77
7335;BME280;3708;42.632;23.378;2023-11-18T12:00:02;93738.25;;;4.26;57.08
7335;BME280;3708;42.632;23.378;2023-11-18T12:02:47;93705.63;;;3.98;57.79
7335;BME280;3708;42.632;23.378;2023-11-18T12:05:16;93718.44;;;4.30;57.25
7335;BME280;3708;42.632;23.378;2023-11-18T12:07:47;93681.16;;;4.61;56.21
7335;BME280;3708;42.632;23.378;2023-11-18T12:10:14;93704.94;;;4.55;56.60
7335;BME280;3708;42.632;23.378;2023-11-18T12:12:47;93718.84;;;4.81;55.51
7335;BME280;3708;42.632;23.378;2023-11-18T12:15:14;93746.13;;;4.70;56.16
7335;BME280;3708;42.632;23.378;2023-11-18T12:18:12;93697.56;;;4.71;55.87
7335;BME280;3708;42.632;23.378;2023-11-18T12:20:44;93721.84;;;4.52;55.95
7335;BME280;3708;42.632;23.378;2023-11-18T12:23:14;93706.28;;;4.52;55.93
7335;BME280;3708;42.632;23.378;2023-11-18T12:25:43;93713.41;;;4.47;56.32
7335;BME280;3708;42.632;23.378;2023-11-18T12:28:13;93740.34;;;4.59;56.58
7335;BME280;3708;42.632;23.378;2023-11-18T12:30:44;93712.63;;;4.46;56.48
7335;BME280;3708;42.632;23.378;2023-11-18T12:34:00;93729.28;;;4.32;57.00
7335;BME280;3708;42.632;23.378;2023-11-18T12:36:50;93744.00;;;4.23;57.27
7335;BME280;3708;42.632;23.378;2023-11-18T12:39:46;93742.00;;;4.55;56.62
7335;BME280;3708;42.632;23.378;2023-11-18T12:42:47;93708.31;;;4.20;57.46
7335;BME280;3708;42.632;23.378;2023-11-18T12:48:34;93752.06;;;4.21;57.30
7335;BME280;3708;42.632;23.378;2023-11-18T12:51:05;93738.34;;;4.21;57.59
7335;BME280;3708;42.632;23.378;2023-11-18T12:53:35;93738.94;;;3.91;58.69
7335;BME280;3708;42.632;23.378;2023-11-18T12:56:05;93771.31;;;4.56;57.17
7335;BME280;3708;42.632;23.378;2023-11-18T12:58:32;93713.09;;;4.26;57.84
7335;BME280;3708;42.632;23.378;2023-11-18T13:00:59;93746.72;;;4.04;58.41
7335;BME280;3708;42.632;23.378;2023-11-18T13:03:29;93718.75;;;4.15;58.33
7335;BME280;3708;42.632;23.378;2023-11-18T13:05:56;93739.59;;;4.23;58.12
7335;BME280;3708;42.632;23.378;2023-11-18T13:08:23;93725.00;;;4.85;57.00
7335;BME280;3708;42.632;23.378;2023-11-18T13:10:50;93752.69;;;4.40;57.07
7335;BME280;3708;42.632;23.378;2023-11-18T13:13:19;93755.66;;;3.98;58.00
7335;BME280;3708;42.632;23.378;2023-11-18T13:15:48;93729.03;;;4.20;57.98
7335;BME280;3708;42.632;23.378;2023-11-18T13:18:16;93761.47;;;4.17;58.06
7335;BME280;3708;42.632;23.378;2023-11-18T13:20:54;93739.16;;;4.43;58.26
7335;BME280;3708;42.632;23.378;2023-11-18T13:23:25;93774.38;;;4.58;58.15
7335;BME280;3708;42.632;23.378;2023-11-18T13:25:54;93782.69;;;4.19;57.89
7335;BME280;3708;42.632;23.378;2023-11-18T13:28:24;93763.81;;;3.92;58.81
7335;BME280;3708;42.632;23.378;2023-11-18T13:30:51;93759.34;;;4.33;58.23
7335;BME280;3708;42.632;23.378;2023-11-18T13:33:19;93783.94;;;4.22;59.27
7335;BME280;3708;42.632;23.378;2023-11-18T13:35:47;93796.25;;;4.03;59.72
7335;BME280;3708;42.632;23.378;2023-11-18T13:38:15;93779.72;;;3.71;60.46
7335;BME280;3708;42.632;23.378;2023-11-18T13:40:44;93783.56;;;3.74;60.39